Aérodrome :
LOGIN :

S'inscrire | Disclaimer

   EN    FR    IT 

 










Légende :    VFR   VFR Marginal   IFR   IFR Intensif   IFR Très Intensif
Visi : 
Plafond : 
>= 8 km
>= 3000ft
5 à 8 km
1000 à 3000 ft
1500m à 5 km
500 à 1000 ft
800 à 1500m
200 à 500 ft
< 800m
< 200 ft
Symboles :   Orages  Brouillard  Fortes neiges  Fortes précipitations  Vent > 20 kt
SIGMETs :   Divers  Orages  Givrage  Turbulence  Onde Orograph.  Cendres Volcan.







- Altitude de l'aérodrome : 122 ft
- Code IATA : TXL


EDDT - Berlin Tegel Int.

DERNIER METAR :
  • 221620Z 09015G26KT 060V130 CAVOK 17/01 Q1016 NOSIG

METARs EXPIRÉS :
  • 221550Z 10016KT 050V120 CAVOK 17/01 Q1016 TEMPO 10015G25KT
  • 221520Z 09015G27KT 060V130 CAVOK 18/00 Q1016 NOSIG
  • 221450Z 10016KT 070V140 CAVOK 18/02 Q1016 TEMPO 10015G25KT
  • 221420Z 11015KT 060V140 CAVOK 18/02 Q1016 TEMPO 11015G25KT
  • 221350Z 11013KT 070V150 CAVOK 18/02 Q1016 TEMPO 11015G25KT

TAF TAF EDDT
Valide du 22 à 12h jusqu'au 23 à 12h UTC


221100Z 2212/2312 09015KT CAVOK
TEMPO 2212/2217 09015G25KT
BECMG 2217/2219 07010KT
BECMG 2305/2307 10015G25KT
TEMPO 2309/2312 10020G35KT
Pas de NOTAMs connus pour ce terrain.



MET'MAP, la Météo Aéronautique d'un coup d'oeil ! - Copyright ORBIFLY Décembre 2007 - Disclaimer

ORBIFLY MET'MAP TEAM :

Programmation & Développement : Alexandra Zaïnal
Conception & Développement : Baudouin d'Aumeries
Co-Programmation & Développement : Marc-Olivier Méhu
Soutien technique & logistique : Manuel Goepfert

Contact : metmap@orbifly.com




SOURCES & CREDITS :

   NOAA